Lloyd, Florida
Current Conditions -  °F | °C
As of 2:22 PM on Monday 22 Dec 2014 (Local Time) from KTLH Reporting Station
Overcast Overcast  
Wind Chill: 64°   Ceiling: 900
Heat Index: 64°   Visibility: 10mi
Dew Point: 59°   Wind: 0mph
Humidity: 84%   Direction: NA
Pressure: 29.87"   Gusts: NA
Location:  30.48°N, 84.02°W
Report Text: KTLH 221922Z 00000KT 10SM SCT005 BKN009 OVC042 18/15 A2987 RMK AO2 CIG 007V014 T01780150 $
Loading
Personal Weather Stations






























Interactive Weather Map New forecast layout! Learn more

10-Day Weather Forecast

Advertisements
Track Severe Weather on mobile